Maersk Missouri — WAHV — position and weather

sailwx.info

Track history (hours):
 
Tides and Currents Weather Stations Pressure Air Temp Water Temp Dewpoint Dewpoint Depression Visibility Wind Speed Wind Dir Waves Ship Positions

Maersk Missouri

Owner: MAERSK LINE, LIMITED, Norfolk, VA. More information available from US FCC via Universal Licensing System and Coast Guard Vessel Documentation Center.

Last reported at 2016-Jul-28 13:32 UTC. Time now 2016-Jul-28 14:34 UTC.
Position N 36°52' W 076°21'.

Type: Cargo ship. MMSI: 369708000.

Date/timePositionNaut miles runAvg speedWind from/ knotsBaromVisibWave heightAir tempDewpointWater temp
2016-Jul-28 13:32N 36°52' W 076°21'0 0.0
2016-Jul-28 12:32N 36°52' W 076°21'0 0.0
2016-Jul-28 11:33N 36°52' W 076°21'0 0.0
2016-Jul-28 10:19N 36°52' W 076°21'0 0.0
2016-Jul-28 09:31N 36°52' W 076°21'2 1.6
2016-Jul-28 08:33N 36°54' W 076°20'10 9.6
2016-Jul-28 07:29N 36°59' W 076°09'1415.6
2016-Jul-28 06:33N 36°53' W 075°53'11716.4
2016-Jul-27 23:27N 35°00' W 075°17'3719.7
2016-Jul-27 21:33N 34°29' W 075°41'2121.3
2016-Jul-27 20:33N 34°11' W 075°56'2121.4
2016-Jul-27 19:33N 33°53' W 076°09'2219.4
2016-Jul-27 18:25N 33°33' W 076°21'1618.8
2016-Jul-27 17:33N 33°19' W 076°31'41818.9
2016-Jul-26 19:30N 26°56' W 079°45'2021.5
2016-Jul-26 18:32N 26°36' W 079°47'2121.3
2016-Jul-26 17:33N 26°15' W 079°49'2121.2
2016-Jul-26 16:33N 25°54' W 079°50'2120.9
2016-Jul-26 15:33N 25°33' W 079°55'82916.6
2016-Jul-24 13:33N 29°28' W 094°51'1111.3
2016-Jul-24 12:33N 29°37' W 094°58'2 1.2
2016-Jul-24 11:07N 29°37' W 095°00'0 0.0
2016-Jul-24 09:23N 29°37' W 095°00'0 0.0
2016-Jul-24 08:30N 29°37' W 095°00'0 0.0
2016-Jul-24 07:31N 29°37' W 095°00'0 0.0
2016-Jul-24 06:25N 29°37' W 095°00'0 0.0
2016-Jul-24 04:33N 29°37' W 095°00'0 0.0
2016-Jul-24 03:33N 29°37' W 095°00'0 0.0
2016-Jul-24 02:31N 29°37' W 095°00'0 0.0
2016-Jul-24 01:29N 29°37' W 095°00'0 0.0
2016-Jul-24 00:32N 29°37' W 095°00'0 0.0
2016-Jul-23 23:21N 29°37' W 095°00'0 0.0
2016-Jul-23 21:31N 29°37' W 095°00'0 0.0
2016-Jul-23 19:32N 29°37' W 095°00'0 0.0
2016-Jul-23 18:33N 29°37' W 095°00'0 0.0
2016-Jul-23 17:23N 29°37' W 095°00'0 0.0
2016-Jul-23 16:24N 29°37' W 095°00'0 0.0
2016-Jul-23 15:07N 29°37' W 095°00'0 0.0
2016-Jul-23 14:31N 29°37' W 095°00'0 0.0
2016-Jul-23 13:26N 29°37' W 095°00'0 0.0
2016-Jul-23 12:14N 29°37' W 095°00'0 0.0
2016-Jul-23 11:24N 29°37' W 095°00'0 0.0
2016-Jul-23 10:28N 29°37' W 095°00'1 0.6
2016-Jul-23 09:33N 29°37' W 094°60'10 9.7
2016-Jul-23 08:32N 29°30' W 094°52'1111.4
2016-Jul-23 07:33N 29°21' W 094°44'4614.5
2016-Jul-23 04:22N 28°56' W 093°60'1518.0
2016-Jul-23 03:33N 28°47' W 093°46'32817.6
2016-Jul-22 09:00N 25°42' W 088°42'5016.7 130 / 111021.510.8 0.529.026.230.0
2016-Jul-22 06:00N 25°30' W 087°48'29216.2 090 / 121022.510.8 1.029.026.230.0
2016-Jul-21 12:00N 24°18' W 082°36'5518.2 090 / 61022.010.8 28.025.228.0
2016-Jul-21 09:00N 24°18' W 081°36'4715.8 090 / 111021.510.8 28.025.229.0
2016-Jul-21 06:00N 24°36' W 080°48'7613.4 080 / 81022.510.8 29.026.229.0
2016-Jul-21 00:20N 25°40' W 080°02'9 4.7
2016-Jul-20 22:28N 25°46' W 080°09'0 0.0
2016-Jul-20 21:29N 25°46' W 080°09'0 0.0
2016-Jul-20 20:26N 25°46' W 080°09'0 0.0
2016-Jul-20 19:21N 25°46' W 080°09'0 0.0
2016-Jul-20 18:25N 25°46' W 080°09'0 0.0
2016-Jul-20 17:31N 25°46' W 080°09'0 0.0
2016-Jul-20 16:29N 25°46' W 080°09'0 0.0
2016-Jul-20 15:27N 25°46' W 080°09'0 0.0
2016-Jul-20 14:13N 25°46' W 080°09'0 0.0
2016-Jul-20 13:25N 25°46' W 080°09'0 0.0
2016-Jul-20 10:30N 25°46' W 080°09'0 0.0
2016-Jul-20 09:31N 25°46' W 080°09'4 3.8
2016-Jul-20 08:33N 25°46' W 080°06'6 5.6
2016-Jul-20 07:33N 25°50' W 080°01'9 9.1
2016-Jul-20 06:34N 25°59' W 080°01'712.5
2016-Jul-20 06:00N 26°06' W 080°00'511.6 100 / 161023.910.8 0.528.025.229.5
2016-Jul-20 05:34N 26°11' W 079°60'1212.2
2016-Jul-20 04:34N 26°23' W 079°59'1312.7
2016-Jul-20 03:33N 26°36' W 079°58'1312.9
2016-Jul-20 02:33N 26°49' W 079°58'1313.1
2016-Jul-20 01:34N 27°02' W 079°58'17312.8
2016-Jul-19 12:00N 29°54' W 080°18'3712.5 050 / 31027.410.8 1.029.024.829.0
2016-Jul-19 09:00N 30°30' W 080°06'6914.4 160 / 61026.910.8 1.029.024.829.5
2016-Jul-19 04:12N 31°38' W 079°52'913.6
2016-Jul-19 03:32N 31°47' W 079°50'1313.3
2016-Jul-19 02:33N 31°59' W 079°46'  
Track history (hours):
 
Tides and Currents Weather Stations Pressure Air Temp Water Temp Dewpoint Dewpoint Depression Visibility Wind Speed Wind Dir Waves Ship Positions

Maersk Missouri

Owner: MAERSK LINE, LIMITED, Norfolk, VA. More information available from US FCC via Universal Licensing System and Coast Guard Vessel Documentation Center.

Last reported at 2016-Jul-28 13:32 UTC. Time now 2016-Jul-28 14:34 UTC.
Position N 36°52' W 076°21'.

Type: Cargo ship. MMSI: 369708000.

Date/timePositionNaut miles runAvg speedWind from/ knotsBaromVisibWave heightAir tempDewpointWater temp
2016-Jul-28 13:32N 36°52' W 076°21'0 0.0
2016-Jul-28 12:32N 36°52' W 076°21'0 0.0
2016-Jul-28 11:33N 36°52' W 076°21'0 0.0
2016-Jul-28 10:19N 36°52' W 076°21'0 0.0
2016-Jul-28 09:31N 36°52' W 076°21'2 1.6
2016-Jul-28 08:33N 36°54' W 076°20'10 9.6
2016-Jul-28 07:29N 36°59' W 076°09'1415.6
2016-Jul-28 06:33N 36°53' W 075°53'11716.4
2016-Jul-27 23:27N 35°00' W 075°17'3719.7
2016-Jul-27 21:33N 34°29' W 075°41'2121.3
2016-Jul-27 20:33N 34°11' W 075°56'2121.4
2016-Jul-27 19:33N 33°53' W 076°09'2219.4
2016-Jul-27 18:25N 33°33' W 076°21'1618.8
2016-Jul-27 17:33N 33°19' W 076°31'41818.9
2016-Jul-26 19:30N 26°56' W 079°45'2021.5
2016-Jul-26 18:32N 26°36' W 079°47'2121.3
2016-Jul-26 17:33N 26°15' W 079°49'2121.2
2016-Jul-26 16:33N 25°54' W 079°50'2120.9
2016-Jul-26 15:33N 25°33' W 079°55'82916.6
2016-Jul-24 13:33N 29°28' W 094°51'1111.3
2016-Jul-24 12:33N 29°37' W 094°58'2 1.2
2016-Jul-24 11:07N 29°37' W 095°00'0 0.0
2016-Jul-24 09:23N 29°37' W 095°00'0 0.0
2016-Jul-24 08:30N 29°37' W 095°00'0 0.0
2016-Jul-24 07:31N 29°37' W 095°00'0 0.0
2016-Jul-24 06:25N 29°37' W 095°00'0 0.0
2016-Jul-24 04:33N 29°37' W 095°00'0 0.0
2016-Jul-24 03:33N 29°37' W 095°00'0 0.0
2016-Jul-24 02:31N 29°37' W 095°00'0 0.0
2016-Jul-24 01:29N 29°37' W 095°00'0 0.0
2016-Jul-24 00:32N 29°37' W 095°00'0 0.0
2016-Jul-23 23:21N 29°37' W 095°00'0 0.0
2016-Jul-23 21:31N 29°37' W 095°00'0 0.0
2016-Jul-23 19:32N 29°37' W 095°00'0 0.0
2016-Jul-23 18:33N 29°37' W 095°00'0 0.0
2016-Jul-23 17:23N 29°37' W 095°00'0 0.0
2016-Jul-23 16:24N 29°37' W 095°00'0 0.0
2016-Jul-23 15:07N 29°37' W 095°00'0 0.0
2016-Jul-23 14:31N 29°37' W 095°00'0 0.0
2016-Jul-23 13:26N 29°37' W 095°00'0 0.0
2016-Jul-23 12:14N 29°37' W 095°00'0 0.0
2016-Jul-23 11:24N 29°37' W 095°00'0 0.0
2016-Jul-23 10:28N 29°37' W 095°00'1 0.6
2016-Jul-23 09:33N 29°37' W 094°60'10 9.7
2016-Jul-23 08:32N 29°30' W 094°52'1111.4
2016-Jul-23 07:33N 29°21' W 094°44'4614.5
2016-Jul-23 04:22N 28°56' W 093°60'1518.0
2016-Jul-23 03:33N 28°47' W 093°46'32817.6
2016-Jul-22 09:00N 25°42' W 088°42'5016.7 130 / 111021.510.8 0.529.026.230.0
2016-Jul-22 06:00N 25°30' W 087°48'29216.2 090 / 121022.510.8 1.029.026.230.0
2016-Jul-21 12:00N 24°18' W 082°36'5518.2 090 / 61022.010.8 28.025.228.0
2016-Jul-21 09:00N 24°18' W 081°36'4715.8 090 / 111021.510.8 28.025.229.0
2016-Jul-21 06:00N 24°36' W 080°48'7613.4 080 / 81022.510.8 29.026.229.0
2016-Jul-21 00:20N 25°40' W 080°02'9 4.7
2016-Jul-20 22:28N 25°46' W 080°09'0 0.0
2016-Jul-20 21:29N 25°46' W 080°09'0 0.0
2016-Jul-20 20:26N 25°46' W 080°09'0 0.0
2016-Jul-20 19:21N 25°46' W 080°09'0 0.0
2016-Jul-20 18:25N 25°46' W 080°09'0 0.0
2016-Jul-20 17:31N 25°46' W 080°09'0 0.0
2016-Jul-20 16:29N 25°46' W 080°09'0 0.0
2016-Jul-20 15:27N 25°46' W 080°09'0 0.0
2016-Jul-20 14:13N 25°46' W 080°09'0 0.0
2016-Jul-20 13:25N 25°46' W 080°09'0 0.0
2016-Jul-20 10:30N 25°46' W 080°09'0 0.0
2016-Jul-20 09:31N 25°46' W 080°09'4 3.8
2016-Jul-20 08:33N 25°46' W 080°06'6 5.6
2016-Jul-20 07:33N 25°50' W 080°01'9 9.1
2016-Jul-20 06:34N 25°59' W 080°01'712.5
2016-Jul-20 06:00N 26°06' W 080°00'511.6 100 / 161023.910.8 0.528.025.229.5
2016-Jul-20 05:34N 26°11' W 079°60'1212.2
2016-Jul-20 04:34N 26°23' W 079°59'1312.7
2016-Jul-20 03:33N 26°36' W 079°58'1312.9
2016-Jul-20 02:33N 26°49' W 079°58'1313.1
2016-Jul-20 01:34N 27°02' W 079°58'17312.8
2016-Jul-19 12:00N 29°54' W 080°18'3712.5 050 / 31027.410.8 1.029.024.829.0
2016-Jul-19 09:00N 30°30' W 080°06'6914.4 160 / 61026.910.8 1.029.024.829.5
2016-Jul-19 04:12N 31°38' W 079°52'913.6
2016-Jul-19 03:32N 31°47' W 079°50'1313.3
2016-Jul-19 02:33N 31°59' W 079°46'  

Dump ship's entire track history